createdAt,value
2023-02-15T00:01:54.456Z,7.57
2023-02-15T00:04:24.290Z,7.49
2023-02-15T00:06:53.910Z,7.36
2023-02-15T00:09:20.522Z,7.39
2023-02-15T00:11:56.678Z,7.28
2023-02-15T00:14:26.232Z,7.09
2023-02-15T00:16:55.750Z,7.16
2023-02-15T00:19:27.322Z,7.07
2023-02-15T00:21:54.252Z,7.05
2023-02-15T00:24:20.799Z,6.72
2023-02-15T00:26:48.495Z,6.50
2023-02-15T00:29:16.688Z,6.41
2023-02-15T00:31:43.548Z,6.29
2023-02-15T00:34:19.645Z,6.44
2023-02-15T00:36:46.620Z,6.47
2023-02-15T00:39:13.515Z,6.50
2023-02-15T00:41:40.212Z,6.49
2023-02-15T00:44:07.272Z,6.54
2023-02-15T00:46:33.885Z,6.47
2023-02-15T00:49:00.519Z,6.43
2023-02-15T00:51:27.469Z,6.45
2023-02-15T00:53:57.278Z,6.28
2023-02-15T00:56:26.326Z,6.14
2023-02-15T00:58:52.914Z,6.48
2023-02-15T01:01:21.008Z,6.44
2023-02-15T01:03:48.105Z,6.57
2023-02-15T01:06:16.561Z,6.68
2023-02-15T01:08:44.339Z,6.65
2023-02-15T01:11:14.076Z,6.64
2023-02-15T01:13:41.854Z,6.70
2023-02-15T01:16:09.429Z,6.67
2023-02-15T01:18:36.583Z,6.54
2023-02-15T01:21:11.615Z,6.70
2023-02-15T01:23:38.313Z,6.64
2023-02-15T01:26:04.984Z,6.58
2023-02-15T01:28:32.376Z,6.43
2023-02-15T01:31:00.247Z,6.45
2023-02-15T01:33:29.529Z,6.63
2023-02-15T01:36:00.270Z,6.68
2023-02-15T01:38:30.342Z,6.95
2023-02-15T01:41:20.527Z,6.96
2023-02-15T01:43:49.744Z,7.04
2023-02-15T01:46:19.017Z,6.94
2023-02-15T01:48:53.465Z,6.63
2023-02-15T01:51:23.923Z,6.19
2023-02-15T01:53:58.804Z,6.16
2023-02-15T01:56:34.421Z,6.01
2023-02-15T01:59:06.702Z,6.09
2023-02-15T02:01:33.252Z,6.09
2023-02-15T02:04:05.498Z,6.14
2023-02-15T02:06:34.323Z,6.11
2023-02-15T02:09:01.166Z,6.11
2023-02-15T02:11:31.242Z,6.11
2023-02-15T02:14:00.236Z,6.06
2023-02-15T02:16:43.710Z,6.51
2023-02-15T02:19:31.250Z,6.60
2023-02-15T02:22:15.647Z,6.54
2023-02-15T02:24:56.164Z,6.70
2023-02-15T02:27:44.066Z,6.62
2023-02-15T02:30:57.757Z,6.49
2023-02-15T02:33:33.624Z,6.52
2023-02-15T02:36:12.350Z,6.29
2023-02-15T02:39:03.395Z,6.22
2023-02-15T02:41:44.152Z,6.06
2023-02-15T02:44:25.681Z,6.07
2023-02-15T02:47:37.784Z,5.91
2023-02-15T02:50:10.973Z,5.87
2023-02-15T02:52:40.180Z,5.89
2023-02-15T02:55:28.854Z,5.48
2023-02-15T02:58:06.683Z,5.40
2023-02-15T03:00:40.132Z,5.26
2023-02-15T03:03:25.702Z,5.14
2023-02-15T03:05:56.036Z,4.87
2023-02-15T03:08:28.873Z,4.78
2023-02-15T03:10:58.229Z,4.53
2023-02-15T03:13:25.206Z,4.48
2023-02-15T03:16:12.203Z,4.66
2023-02-15T03:18:53.685Z,4.36
2023-02-15T03:21:24.346Z,4.04
2023-02-15T03:23:58.540Z,4.24
2023-02-15T03:26:27.843Z,4.21
2023-02-15T03:28:57.922Z,4.23
2023-02-15T03:31:28.291Z,4.50
2023-02-15T03:34:11.773Z,4.66
2023-02-15T03:36:50.471Z,4.90
2023-02-15T03:39:34.888Z,5.05
2023-02-15T03:42:19.798Z,5.15
2023-02-15T03:45:10.482Z,5.03
2023-02-15T03:47:44.295Z,4.85
2023-02-15T03:50:43.937Z,4.95
2023-02-15T03:53:14.995Z,4.66
2023-02-15T03:55:41.727Z,4.49
2023-02-15T03:58:27.075Z,4.35
2023-02-15T04:01:19.229Z,4.28
2023-02-15T04:04:20.331Z,4.30
2023-02-15T04:06:47.481Z,4.43
2023-02-15T04:09:33.201Z,4.45
2023-02-15T04:12:00.149Z,4.48
2023-02-15T04:14:45.230Z,4.41
2023-02-15T04:17:11.757Z,4.68
2023-02-15T04:19:56.846Z,4.73
2023-02-15T04:22:41.826Z,4.80
2023-02-15T04:25:14.175Z,4.93
2023-02-15T04:27:44.270Z,5.11
2023-02-15T04:30:12.729Z,4.97
2023-02-15T04:32:39.670Z,4.87
2023-02-15T04:35:10.391Z,4.54
2023-02-15T04:37:40.511Z,4.33
2023-02-15T04:40:13.209Z,4.02
2023-02-15T04:42:39.716Z,3.96
2023-02-15T04:45:10.582Z,4.10
2023-02-15T04:47:40.542Z,4.23
2023-02-15T04:50:11.433Z,4.15
2023-02-15T04:52:41.125Z,4.32
2023-02-15T04:55:11.113Z,4.37
2023-02-15T04:57:40.752Z,4.17
2023-02-15T05:00:11.504Z,4.28
2023-02-15T05:02:39.719Z,4.22
2023-02-15T05:05:06.552Z,4.18
2023-02-15T05:07:33.129Z,4.01
2023-02-15T05:09:59.613Z,3.95
2023-02-15T05:12:26.070Z,3.87
2023-02-15T05:14:52.802Z,3.90
2023-02-15T05:17:19.259Z,3.87
2023-02-15T05:19:45.755Z,3.82
2023-02-15T05:22:12.305Z,3.81
2023-02-15T05:24:57.569Z,3.89
2023-02-15T05:27:42.483Z,3.92
2023-02-15T05:30:12.764Z,3.90
2023-02-15T05:32:44.501Z,3.88
2023-02-15T05:35:16.314Z,3.76
2023-02-15T05:37:42.835Z,3.68
2023-02-15T05:40:13.669Z,3.68
2023-02-15T05:42:43.327Z,3.56
2023-02-15T05:45:14.104Z,3.49
2023-02-15T05:47:44.852Z,3.55
2023-02-15T05:50:12.483Z,3.27
2023-02-15T05:52:38.950Z,3.20
2023-02-15T05:55:06.341Z,3.24
2023-02-15T05:57:33.125Z,2.95
2023-02-15T05:59:59.586Z,3.01
2023-02-15T06:02:26.189Z,2.95
2023-02-15T06:04:52.707Z,2.99
2023-02-15T06:07:19.305Z,2.97
2023-02-15T06:09:45.808Z,3.05
2023-02-15T06:12:15.397Z,3.15
2023-02-15T06:14:44.944Z,3.10
2023-02-15T06:17:15.258Z,3.13
2023-02-15T06:22:33.395Z,3.22
2023-02-15T06:24:59.904Z,3.15
2023-02-15T06:27:26.410Z,3.27
2023-02-15T06:29:53.066Z,3.00
2023-02-15T06:32:19.586Z,3.13
2023-02-15T06:34:47.483Z,3.15
2023-02-15T06:37:15.052Z,3.06
2023-02-15T06:39:45.081Z,3.18
2023-02-15T06:42:14.372Z,3.17
2023-02-15T06:44:43.242Z,3.08
2023-02-15T06:47:09.877Z,3.03
2023-02-15T06:49:36.390Z,3.16
2023-02-15T06:52:03.108Z,3.16
2023-02-15T06:54:29.603Z,2.87
2023-02-15T06:56:56.271Z,3.02
2023-02-15T06:59:22.872Z,3.01
2023-02-15T07:01:50.198Z,2.72
2023-02-15T07:04:17.000Z,3.07
2023-02-15T07:06:44.143Z,3.34
2023-02-15T07:09:18.022Z,3.36
2023-02-15T07:12:03.163Z,3.53
2023-02-15T07:14:29.743Z,3.65
2023-02-15T07:16:56.314Z,3.81
2023-02-15T07:19:22.849Z,3.96
2023-02-15T07:21:49.396Z,3.88
2023-02-15T07:24:15.975Z,4.05
2023-02-15T07:26:45.509Z,4.36
2023-02-15T07:29:16.416Z,4.76
2023-02-15T07:31:46.332Z,5.09
2023-02-15T07:34:16.910Z,5.28
2023-02-15T07:36:47.686Z,5.60
2023-02-15T07:39:14.269Z,6.12
2023-02-15T07:41:41.800Z,6.61
2023-02-15T07:44:14.369Z,7.30
2023-02-15T07:46:42.769Z,8.19
2023-02-15T07:49:09.442Z,9.06
2023-02-15T07:51:35.950Z,9.66
2023-02-15T07:54:02.448Z,9.71
2023-02-15T07:56:31.772Z,9.68
2023-02-15T07:59:03.953Z,9.12
2023-02-15T08:01:33.401Z,8.76
2023-02-15T08:04:00.776Z,8.53
2023-02-15T08:06:29.643Z,8.45
2023-02-15T08:08:56.278Z,9.03
2023-02-15T08:11:37.160Z,9.68
2023-02-15T08:14:07.998Z,9.90
2023-02-15T08:16:36.401Z,9.81
2023-02-15T08:19:11.757Z,9.80
2023-02-15T08:21:43.606Z,9.77
2023-02-15T08:24:13.032Z,9.85
2023-02-15T08:26:42.658Z,9.86
2023-02-15T08:29:13.164Z,9.79
2023-02-15T08:31:46.657Z,9.90
2023-02-15T08:34:19.277Z,10.01
2023-02-15T08:36:48.567Z,9.68
2023-02-15T08:39:16.572Z,9.01
2023-02-15T08:41:45.315Z,8.48
2023-02-15T08:44:16.363Z,8.40
2023-02-15T08:46:47.215Z,8.28
2023-02-15T08:49:17.669Z,8.40
2023-02-15T08:51:44.211Z,8.39
2023-02-15T08:54:17.411Z,8.41
2023-02-15T08:56:45.098Z,8.45
2023-02-15T08:59:22.964Z,8.75
2023-02-15T09:01:51.773Z,9.04
2023-02-15T09:04:18.617Z,9.42
2023-02-15T09:06:48.546Z,9.73
2023-02-15T09:09:16.970Z,10.16
2023-02-15T09:11:49.284Z,10.66
2023-02-15T09:14:18.696Z,10.96
2023-02-15T09:16:49.550Z,11.10
2023-02-15T09:19:18.325Z,11.17
2023-02-15T09:21:44.916Z,11.26
2023-02-15T09:24:15.185Z,11.26
2023-02-15T09:26:47.310Z,11.02
2023-02-15T09:29:17.660Z,11.27
2023-02-15T09:31:47.175Z,11.41
2023-02-15T09:34:18.792Z,11.43
2023-02-15T09:36:45.908Z,11.78
2023-02-15T09:39:22.003Z,11.74
2023-02-15T09:42:12.728Z,11.81
2023-02-15T09:45:10.221Z,12.32
2023-02-15T09:47:55.901Z,12.98
2023-02-15T09:50:22.394Z,13.27
2023-02-15T09:53:00.746Z,13.09
2023-02-15T09:55:46.219Z,13.04
2023-02-15T09:58:38.994Z,13.16
2023-02-15T10:01:23.210Z,13.44
2023-02-15T10:04:01.860Z,13.42
2023-02-15T10:06:47.272Z,13.54
2023-02-15T10:09:55.096Z,13.49
2023-02-15T10:12:58.382Z,13.18
2023-02-15T10:15:46.456Z,13.36
2023-02-15T10:18:30.865Z,13.75
2023-02-15T10:21:14.321Z,14.04
2023-02-15T10:23:49.705Z,14.26
2023-02-15T10:26:19.823Z,14.65
2023-02-15T10:28:58.453Z,15.31
2023-02-15T10:31:25.071Z,15.85
2023-02-15T10:34:07.976Z,16.32
2023-02-15T10:36:43.601Z,16.58
2023-02-15T10:39:39.950Z,16.86
2023-02-15T10:42:16.653Z,16.83
2023-02-15T10:44:58.245Z,17.01
2023-02-15T10:47:34.694Z,17.39
2023-02-15T10:50:01.226Z,17.73
2023-02-15T10:52:46.612Z,18.26
2023-02-15T10:55:43.362Z,18.71
2023-02-15T10:58:34.480Z,19.17
2023-02-15T11:01:22.354Z,19.53
2023-02-15T11:04:32.649Z,19.86
2023-02-15T11:07:07.241Z,20.22
2023-02-15T11:09:48.326Z,20.50
2023-02-15T11:12:21.177Z,20.70
2023-02-15T11:14:52.445Z,20.85
2023-02-15T11:17:26.626Z,21.01
2023-02-15T11:20:03.855Z,21.38
2023-02-15T11:22:33.173Z,21.67
2023-02-15T11:25:02.599Z,21.99
2023-02-15T11:27:36.117Z,21.77
2023-02-15T11:30:06.597Z,21.77
2023-02-15T11:32:44.639Z,21.76
2023-02-15T11:35:13.501Z,21.87
2023-02-15T11:37:39.960Z,21.72
2023-02-15T11:40:21.706Z,21.61
2023-02-15T11:42:51.017Z,21.27
2023-02-15T11:45:35.849Z,21.50
2023-02-15T11:48:11.767Z,21.40
2023-02-15T11:50:38.658Z,21.31
2023-02-15T11:53:16.781Z,21.20
2023-02-15T11:55:49.234Z,21.56
2023-02-15T11:58:24.596Z,22.52
2023-02-15T12:00:56.679Z,22.81
2023-02-15T12:03:38.993Z,23.07
2023-02-15T12:06:13.155Z,22.70
2023-02-15T12:08:43.445Z,23.24
2023-02-15T12:11:21.534Z,23.49
2023-02-15T12:14:02.905Z,23.58
2023-02-15T12:16:35.187Z,23.63
2023-02-15T12:19:03.082Z,23.53
2023-02-15T12:21:43.295Z,23.61
2023-02-15T12:24:25.920Z,23.46
2023-02-15T12:27:17.565Z,23.03
2023-02-15T12:29:49.435Z,22.95
2023-02-15T12:32:32.397Z,22.95
2023-02-15T12:35:14.942Z,23.25
2023-02-15T12:37:54.735Z,23.49
2023-02-15T12:40:31.388Z,23.92
2023-02-15T12:42:58.763Z,24.08
2023-02-15T12:45:29.653Z,23.46
2023-02-15T12:48:18.574Z,23.84
2023-02-15T12:50:57.226Z,24.41
2023-02-15T12:53:31.224Z,24.58
2023-02-15T12:56:06.364Z,24.76
2023-02-15T12:59:05.170Z,24.24
2023-02-15T13:01:33.377Z,23.61
2023-02-15T13:04:03.880Z,23.78
2023-02-15T13:06:34.510Z,24.18
2023-02-15T13:09:18.753Z,24.46
2023-02-15T13:11:47.050Z,24.68
2023-02-15T13:14:23.086Z,25.02
2023-02-15T13:16:53.333Z,25.06
2023-02-15T13:19:32.936Z,24.42
2023-02-15T13:22:06.157Z,24.16
2023-02-15T13:24:48.909Z,23.81
2023-02-15T13:27:20.027Z,24.08
2023-02-15T13:29:52.448Z,24.14
2023-02-15T13:32:33.935Z,24.14
2023-02-15T13:35:03.165Z,23.96
2023-02-15T13:37:49.761Z,23.77
2023-02-15T13:40:27.233Z,23.91
2023-02-15T13:43:17.831Z,24.01
2023-02-15T13:45:59.596Z,23.88
2023-02-15T13:48:54.124Z,23.67
2023-02-15T13:51:52.664Z,24.12
2023-02-15T13:54:37.546Z,24.10
2023-02-15T13:57:34.802Z,24.04
2023-02-15T14:00:22.330Z,24.14
2023-02-15T14:02:57.700Z,24.21
2023-02-15T14:05:41.589Z,24.39
2023-02-15T14:08:38.507Z,24.54
2023-02-15T14:11:11.081Z,24.62
2023-02-15T14:13:54.020Z,24.69
2023-02-15T14:16:41.934Z,25.07
2023-02-15T14:19:24.029Z,24.94
2023-02-15T14:22:09.076Z,24.64
2023-02-15T14:24:35.695Z,24.43
2023-02-15T14:27:46.165Z,24.53
2023-02-15T14:30:22.358Z,24.56
2023-02-15T14:33:09.886Z,24.45
2023-02-15T14:35:38.215Z,24.49
2023-02-15T14:38:07.702Z,24.51
2023-02-15T14:40:58.942Z,24.41
2023-02-15T14:43:50.056Z,24.27
2023-02-15T14:46:38.540Z,24.14
2023-02-15T14:49:17.700Z,23.52
2023-02-15T14:51:48.152Z,22.56
2023-02-15T14:54:18.274Z,21.94
2023-02-15T14:57:09.530Z,21.54
2023-02-15T14:59:42.431Z,21.06
2023-02-15T15:02:09.267Z,20.93
2023-02-15T15:04:41.387Z,20.82
2023-02-15T15:07:26.532Z,20.84
2023-02-15T15:10:04.900Z,20.54
2023-02-15T15:12:39.548Z,20.32
2023-02-15T15:15:06.481Z,20.22
2023-02-15T15:17:33.486Z,20.46
2023-02-15T15:20:19.649Z,20.54
2023-02-15T15:22:48.729Z,20.82
2023-02-15T15:25:34.686Z,21.23
2023-02-15T15:28:01.190Z,21.09
2023-02-15T15:30:47.751Z,20.85
2023-02-15T15:33:25.101Z,20.46
2023-02-15T15:36:33.033Z,20.22
2023-02-15T15:39:24.438Z,20.37
2023-02-15T15:42:49.034Z,20.35
2023-02-15T15:45:23.496Z,20.24
2023-02-15T15:48:11.715Z,20.16
2023-02-15T15:50:41.773Z,19.88
2023-02-15T15:53:22.644Z,19.68
2023-02-15T15:55:55.957Z,19.58
2023-02-15T15:58:23.657Z,19.49
2023-02-15T16:00:58.786Z,19.09
2023-02-15T16:03:28.296Z,18.85
2023-02-15T16:06:01.168Z,18.59
2023-02-15T16:08:38.156Z,18.41
2023-02-15T16:11:21.898Z,18.46
2023-02-15T16:13:48.504Z,18.35
2023-02-15T16:16:22.330Z,18.25
2023-02-15T16:18:49.658Z,18.11
2023-02-15T16:21:27.871Z,17.94
2023-02-15T16:24:30.429Z,17.85
2023-02-15T16:27:06.044Z,17.72
2023-02-15T16:29:34.443Z,17.48
2023-02-15T16:32:02.276Z,17.39
2023-02-15T16:34:32.104Z,17.24
2023-02-15T16:37:18.045Z,17.11
2023-02-15T16:39:50.011Z,17.00
2023-02-15T16:42:19.539Z,16.88
2023-02-15T16:45:06.386Z,16.71
2023-02-15T16:47:38.164Z,16.28
2023-02-15T16:50:05.722Z,16.03
2023-02-15T16:52:32.613Z,15.97
2023-02-15T16:55:04.759Z,15.86
2023-02-15T16:57:36.140Z,15.57
2023-02-15T17:00:08.272Z,15.34
2023-02-15T17:02:56.457Z,15.09
2023-02-15T17:05:22.612Z,14.91
2023-02-15T17:08:13.136Z,14.68
2023-02-15T17:10:47.418Z,14.52
2023-02-15T17:13:17.584Z,14.46
2023-02-15T17:16:10.113Z,14.31
2023-02-15T17:18:46.753Z,14.19
2023-02-15T17:21:19.695Z,14.12
2023-02-15T17:23:51.441Z,14.06
2023-02-15T17:26:27.691Z,13.96
2023-02-15T17:28:57.734Z,13.82
2023-02-15T17:31:29.502Z,13.76
2023-02-15T17:33:57.643Z,13.65
2023-02-15T17:36:26.547Z,13.67
2023-02-15T17:38:59.051Z,13.57
2023-02-15T17:41:31.421Z,13.42
2023-02-15T17:44:02.381Z,13.25
2023-02-15T17:46:33.410Z,13.21
2023-02-15T17:48:59.951Z,13.07
2023-02-15T17:51:26.554Z,13.04
2023-02-15T17:54:11.431Z,12.88
2023-02-15T17:56:39.317Z,12.72
2023-02-15T17:59:10.238Z,12.59
2023-02-15T18:02:01.470Z,12.46
2023-02-15T18:04:49.610Z,12.38
2023-02-15T18:07:38.437Z,12.30
2023-02-15T18:10:33.035Z,12.29
2023-02-15T18:12:59.541Z,12.31
2023-02-15T18:15:26.093Z,12.30
2023-02-15T18:17:52.888Z,12.26
2023-02-15T18:20:28.205Z,12.02
2023-02-15T18:22:54.982Z,11.92
2023-02-15T18:25:24.297Z,11.88
2023-02-15T18:27:52.831Z,11.89
2023-02-15T18:30:23.553Z,11.89
2023-02-15T18:32:54.734Z,11.88
2023-02-15T18:35:24.576Z,11.82
2023-02-15T18:37:53.375Z,11.71
2023-02-15T18:40:29.189Z,11.66
2023-02-15T18:42:57.122Z,11.49
2023-02-15T18:45:32.826Z,11.43
2023-02-15T18:47:59.483Z,11.30
2023-02-15T18:50:31.049Z,11.14
2023-02-15T18:52:58.527Z,11.15
2023-02-15T18:55:28.034Z,11.12
2023-02-15T18:57:56.674Z,11.01
2023-02-15T19:00:34.896Z,10.92
2023-02-15T19:03:03.097Z,10.73
2023-02-15T19:05:31.986Z,10.63
2023-02-15T19:08:01.094Z,10.50
2023-02-15T19:10:30.629Z,10.56
2023-02-15T19:12:57.762Z,10.40
2023-02-15T19:15:30.632Z,10.26
2023-02-15T19:18:27.304Z,10.18
2023-02-15T19:20:54.333Z,9.73
2023-02-15T19:23:23.964Z,9.68
2023-02-15T19:25:53.391Z,9.65
2023-02-15T19:28:33.533Z,10.04
2023-02-15T19:31:00.220Z,9.98
2023-02-15T19:33:26.939Z,9.83
2023-02-15T19:35:57.422Z,9.62
2023-02-15T19:38:32.492Z,9.53
2023-02-15T19:41:07.255Z,9.49
2023-02-15T19:43:34.735Z,9.42
2023-02-15T19:46:01.712Z,9.26
2023-02-15T19:48:28.461Z,8.96
2023-02-15T19:50:56.933Z,8.71
2023-02-15T19:53:25.982Z,8.54
2023-02-15T19:55:53.146Z,8.63
2023-02-15T19:58:25.480Z,8.52
2023-02-15T20:00:52.013Z,8.53
2023-02-15T20:03:22.693Z,8.44
2023-02-15T20:05:52.296Z,8.21
2023-02-15T20:08:23.257Z,8.07
2023-02-15T20:10:52.975Z,8.00
2023-02-15T20:13:24.433Z,8.24
2023-02-15T20:15:53.858Z,8.33
2023-02-15T20:18:23.063Z,8.09
2023-02-15T20:20:52.453Z,7.94
2023-02-15T20:23:26.174Z,8.14
2023-02-15T20:25:54.391Z,7.98
2023-02-15T20:28:26.469Z,7.83
2023-02-15T20:30:53.384Z,8.06
2023-02-15T20:33:25.325Z,7.97
2023-02-15T20:35:52.323Z,8.16
2023-02-15T20:38:30.995Z,7.81
2023-02-15T20:41:20.534Z,7.56
2023-02-15T20:43:47.185Z,7.48
2023-02-15T20:46:13.840Z,7.45
2023-02-15T20:48:40.461Z,7.45
2023-02-15T20:51:21.836Z,7.43
2023-02-15T20:53:52.449Z,7.24
2023-02-15T20:56:23.821Z,7.25
2023-02-15T20:58:52.268Z,7.49
2023-02-15T21:01:22.903Z,7.53
2023-02-15T21:03:50.433Z,7.57
2023-02-15T21:06:21.390Z,7.70
2023-02-15T21:08:51.137Z,7.59
2023-02-15T21:11:22.552Z,7.61
2023-02-15T21:13:51.129Z,7.49
2023-02-15T21:16:22.056Z,7.61
2023-02-15T21:18:52.865Z,7.60
2023-02-15T21:21:26.175Z,7.50
2023-02-15T21:23:53.735Z,7.47
2023-02-15T21:26:22.569Z,7.29
2023-02-15T21:28:51.252Z,7.00
2023-02-15T21:31:22.287Z,6.69
2023-02-15T21:33:52.463Z,6.77
2023-02-15T21:36:24.316Z,6.57
2023-02-15T21:38:53.963Z,6.72
2023-02-15T21:41:43.003Z,6.86
2023-02-15T21:44:41.504Z,6.83
2023-02-15T21:47:44.095Z,6.68
2023-02-15T21:50:38.276Z,6.91
2023-02-15T21:53:07.162Z,7.00
2023-02-15T21:55:33.680Z,7.04
2023-02-15T21:58:01.092Z,7.15
2023-02-15T22:00:28.646Z,7.13
2023-02-15T22:02:58.435Z,7.36
2023-02-15T22:05:31.266Z,7.20
2023-02-15T22:07:58.049Z,7.11
2023-02-15T22:10:30.298Z,7.23
2023-02-15T22:12:57.320Z,6.92
2023-02-15T22:15:26.951Z,6.72
2023-02-15T22:17:53.946Z,6.67
2023-02-15T22:20:24.206Z,6.65
2023-02-15T22:22:56.161Z,6.52
2023-02-15T22:25:26.692Z,6.46
2023-02-15T22:27:54.937Z,6.54
2023-02-15T22:30:29.006Z,6.58
2023-02-15T22:32:57.888Z,6.51
2023-02-15T22:35:28.413Z,6.45
2023-02-15T22:37:55.607Z,6.20
2023-02-15T22:40:28.042Z,6.16
2023-02-15T22:43:00.920Z,6.00
2023-02-15T22:45:31.084Z,5.99
2023-02-15T22:48:00.226Z,6.03
2023-02-15T22:50:30.341Z,6.15
2023-02-15T22:52:59.738Z,6.12
2023-02-15T22:56:03.545Z,6.33
2023-02-15T22:58:30.151Z,6.35
2023-02-15T23:00:58.002Z,6.37
2023-02-15T23:03:28.972Z,6.31
2023-02-15T23:05:56.642Z,6.33
2023-02-15T23:08:26.700Z,6.34
2023-02-15T23:10:59.004Z,6.27
2023-02-15T23:13:33.110Z,6.19
2023-02-15T23:16:02.522Z,6.12
2023-02-15T23:18:33.304Z,5.88
2023-02-15T23:21:16.595Z,5.65
2023-02-15T23:23:45.518Z,5.45
2023-02-15T23:26:28.611Z,5.35
2023-02-15T23:28:58.946Z,5.20
2023-02-15T23:31:31.430Z,5.14
2023-02-15T23:34:00.684Z,5.11
2023-02-15T23:36:33.741Z,5.21
2023-02-15T23:39:31.482Z,5.07
2023-02-15T23:42:00.590Z,5.24
2023-02-15T23:44:27.789Z,5.27
2023-02-15T23:46:58.729Z,5.44
2023-02-15T23:49:26.190Z,5.50
2023-02-15T23:51:54.639Z,5.52
2023-02-15T23:54:23.927Z,5.37
2023-02-15T23:57:00.395Z,5.32
2023-02-15T23:59:32.334Z,5.08
